Time;durP1;ratioP1;P1;durP2;ratioP2;P2;SDS_P1;SDS_P2;PMS_P1;PMS_P2;Temp;Humidity;BMP_temperature;BMP_pressure;BME280_temperature;BME280_humidity;BME280_pressure;Samples;Min_cycle;Max_cycle;Signal;HPM_P1;HPM_P2
2022/04/17 00:01:53;;;;;;;1.42;0.55;;;;;;;19.74;30.68;102839.31;16143427;19;129453;-63
2022/04/17 00:07:15;;;;;;;0.50;0.50;;;;;;;19.72;30.95;102831.22;16145274;19;129651;-62
2022/04/17 00:12:41;;;;;;;2.10;0.70;;;;;;;19.69;30.62;102832.47;16142431;19;129386;-63
2022/04/17 00:18:03;;;;;;;0.98;0.60;;;;;;;19.67;30.65;102829.06;16146334;19;129377;-63
2022/04/17 00:23:25;;;;;;;1.15;0.60;;;;;;;19.65;30.75;102825.63;16141596;19;129303;-63
2022/04/17 00:28:47;;;;;;;0.70;0.50;;;;;;;19.64;30.85;102831.38;16145410;19;129379;-63
2022/04/17 00:34:08;;;;;;;0.90;0.43;;;;;;;19.61;30.65;102824.31;16147377;19;129530;-63
2022/04/17 00:39:30;;;;;;;1.27;0.70;;;;;;;19.60;30.92;102821.75;16141890;19;130476;-63
2022/04/17 00:44:53;;;;;;;0.82;0.50;;;;;;;19.58;31.13;102821.09;16139943;19;129791;-63
2022/04/17 00:50:15;;;;;;;1.10;0.50;;;;;;;19.56;30.71;102810.22;16141754;19;130400;-62
2022/04/17 00:55:37;;;;;;;0.80;0.60;;;;;;;19.56;31.03;102809.34;16138967;19;129225;-63
2022/04/17 01:00:59;;;;;;;0.50;0.50;;;;;;;19.56;30.79;102815.78;16143318;19;129357;-63
2022/04/17 01:06:21;;;;;;;0.98;0.50;;;;;;;19.53;30.92;102807.84;16142171;19;130708;-61
2022/04/17 01:11:43;;;;;;;1.23;0.55;;;;;;;19.51;31.06;102807.19;16139061;19;128955;-63
2022/04/17 01:17:06;;;;;;;1.45;0.57;;;;;;;19.51;30.97;102804.41;16138766;19;129217;-63
2022/04/17 01:22:28;;;;;;;1.35;0.57;;;;;;;19.48;31.05;102816.81;16138610;19;129445;-63
2022/04/17 01:27:50;;;;;;;1.98;0.70;;;;;;;19.48;30.89;102813.16;16141264;19;129787;-63
2022/04/17 01:33:11;;;;;;;1.27;0.52;;;;;;;19.44;30.92;102812.72;16140291;19;129535;-63
2022/04/17 01:38:33;;;;;;;0.93;0.50;;;;;;;19.43;31.06;102812.94;16140465;19;129584;-63
2022/04/17 01:43:55;;;;;;;1.42;0.60;;;;;;;19.42;30.97;102814.00;16137241;19;129627;-62
2022/04/17 01:49:17;;;;;;;2.55;0.77;;;;;;;19.40;31.00;102816.13;16140504;19;131202;-63
2022/04/17 01:54:38;;;;;;;0.70;0.52;;;;;;;19.38;31.16;102811.63;16141223;19;129419;-63
2022/04/17 02:00:00;;;;;;;1.77;0.80;;;;;;;19.36;31.13;102808.19;16132346;19;129218;-63
2022/04/17 02:05:22;;;;;;;1.05;0.73;;;;;;;19.35;31.04;102808.41;16132846;19;129475;-63
2022/04/17 02:10:44;;;;;;;0.80;0.70;;;;;;;19.35;30.89;102808.41;16131677;19;130634;-63
2022/04/17 02:16:06;;;;;;;1.90;0.75;;;;;;;19.33;31.19;102808.59;16137975;19;129023;-63
2022/04/17 02:21:28;;;;;;;3.67;0.90;;;;;;;19.32;30.79;102808.81;16135844;19;129178;-62
2022/04/17 02:26:50;;;;;;;0.80;0.60;;;;;;;19.30;31.15;102806.25;16138005;19;129299;-63
2022/04/17 02:32:12;;;;;;;1.10;0.75;;;;;;;19.30;30.83;102802.59;16137967;19;129618;-63
2022/04/17 02:37:37;;;;;;;1.25;0.50;;;;;;;19.29;30.84;102798.97;16133668;19;129161;-63
2022/04/17 02:42:59;;;;;;;1.00;0.63;;;;;;;19.27;31.06;102790.00;16133546;19;129205;-63
2022/04/17 02:48:21;;;;;;;0.80;0.50;;;;;;;19.27;31.00;102784.44;16136522;19;129341;-63
2022/04/17 02:53:43;;;;;;;1.30;0.70;;;;;;;19.26;31.27;102784.66;16134810;19;129519;-63
2022/04/17 02:59:05;;;;;;;0.70;0.50;;;;;;;19.24;31.10;102779.31;16135507;19;129616;-63
2022/04/17 03:10:07;;;;;;;0.90;0.60;;;;;;;19.21;31.05;102782.47;16133943;19;129684;-63
2022/04/17 03:15:29;;;;;;;0.80;0.60;;;;;;;19.19;31.31;102773.50;16132267;19;129402;-64
2022/04/17 03:20:51;;;;;;;0.60;0.60;;;;;;;19.17;31.19;102772.84;16143217;19;129046;-63
2022/04/17 03:26:12;;;;;;;0.88;0.50;;;;;;;19.16;31.20;102765.59;16148154;19;129563;-63
2022/04/17 03:31:34;;;;;;;0.70;0.55;;;;;;;19.15;31.24;102761.09;16149721;19;130665;-63
2022/04/17 03:36:58;;;;;;;2.33;0.73;;;;;;;19.14;30.94;102764.94;16150034;19;129402;-63
2022/04/17 03:42:21;;;;;;;0.88;0.50;;;;;;;19.12;31.19;102759.59;16146754;19;130585;-63
2022/04/17 03:47:44;;;;;;;1.17;0.60;;;;;;;19.12;30.77;102761.50;16148471;19;128999;-63
2022/04/17 03:53:06;;;;;;;0.88;0.60;;;;;;;19.09;30.73;102754.44;16147480;19;129345;-63
2022/04/17 03:58:28;;;;;;;0.80;0.60;;;;;;;19.07;30.71;102754.66;16147331;19;132185;-63
2022/04/17 04:03:50;;;;;;;1.73;0.70;;;;;;;19.06;30.92;102750.19;16144919;19;129241;-63
2022/04/17 04:09:11;;;;;;;1.25;0.70;;;;;;;19.05;30.62;102754.00;16147539;19;130067;-63
2022/04/17 04:14:33;;;;;;;0.68;0.57;;;;;;;19.03;30.87;102745.03;16141158;19;130049;-63
2022/04/17 04:19:55;;;;;;;1.05;0.60;;;;;;;19.02;30.77;102751.63;16146065;19;129829;-63
2022/04/17 04:25:17;;;;;;;0.75;0.50;;;;;;;19.00;30.61;102739.88;16142372;19;128921;-63
2022/04/17 04:30:38;;;;;;;2.58;0.70;;;;;;;18.99;30.71;102732.63;16143294;19;129941;-63
2022/04/17 04:36:01;;;;;;;2.97;0.55;;;;;;;18.98;30.40;102744.78;16146518;19;129285;-62
2022/04/17 04:41:23;;;;;;;0.60;0.50;;;;;;;18.98;30.37;102743.94;16145234;19;128941;-63
2022/04/17 04:46:45;;;;;;;0.60;0.50;;;;;;;18.98;30.82;102739.22;16143548;19;129414;-63
2022/04/17 04:52:07;;;;;;;1.10;0.55;;;;;;;18.97;30.36;102733.91;16142753;19;130447;-63
2022/04/17 04:57:29;;;;;;;0.57;0.50;;;;;;;18.96;30.72;102732.19;16142439;19;129965;-63
2022/04/17 05:02:51;;;;;;;0.70;0.60;;;;;;;18.94;30.56;102734.28;16140474;19;129572;-63
2022/04/17 05:08:13;;;;;;;1.10;0.50;;;;;;;18.94;30.72;102742.63;16141825;19;130661;-63
2022/04/17 05:13:35;;;;;;;0.60;0.52;;;;;;;;;;16137869;19;129491;-63
2022/04/17 05:24:40;;;;;;;0.90;0.60;;;;;;;18.90;30.43;102728.31;16137849;19;128859;-63
2022/04/17 05:30:02;;;;;;;1.23;0.40;;;;;;;18.88;30.66;102722.97;16138902;19;129256;-63
2022/04/17 05:35:24;;;;;;;1.40;0.70;;;;;;;18.89;30.83;102723.81;16140687;19;129410;-63
2022/04/17 05:40:50;;;;;;;0.70;0.47;;;;;;;18.89;30.85;102732.97;16139728;19;131596;-63
2022/04/17 05:46:12;;;;;;;0.52;0.30;;;;;;;18.90;30.74;102728.31;16135652;19;130101;-63
2022/04/17 05:51:39;;;;;;;0.50;0.35;;;;;;;19.02;30.88;102732.22;16138712;19;129403;-63
2022/04/17 05:57:01;;;;;;;0.68;0.40;;;;;;;19.34;30.60;102720.66;16138742;19;129302;-63
2022/04/17 06:02:23;;;;;;;0.40;0.30;;;;;;;19.71;29.94;102723.97;16138818;19;129024;-63
2022/04/17 06:07:45;;;;;;;0.35;0.35;;;;;;;20.04;29.97;102719.59;16138031;19;129331;-63
2022/04/17 06:13:07;;;;;;;0.65;0.32;;;;;;;20.30;29.55;102732.63;16134071;19;129986;-63
2022/04/17 06:18:29;;;;;;;0.30;0.20;;;;;;;20.49;29.61;102730.06;16136857;19;129260;-63
2022/04/17 06:23:50;;;;;;;0.75;0.40;;;;;;;20.57;29.09;102733.44;16135657;19;129818;-63
2022/04/17 06:29:12;;;;;;;0.40;0.30;;;;;;;20.57;29.05;102727.06;16135136;19;129677;-63
2022/04/17 06:34:34;;;;;;;0.63;0.40;;;;;;;20.52;29.03;102724.91;16137516;19;130066;-63
2022/04/17 06:39:59;;;;;;;3.28;0.32;;;;;;;20.46;29.14;102731.31;16134568;19;129199;-63
2022/04/17 06:45:22;;;;;;;1.38;0.40;;;;;;;20.37;29.60;102732.63;16132529;19;130941;-62
2022/04/17 06:50:45;;;;;;;0.52;0.40;;;;;;;20.28;29.80;102726.41;16136129;19;129931;-63
2022/04/17 06:56:08;;;;;;;0.90;0.40;;;;;;;20.19;29.40;102731.31;16146527;19;129373;-63
2022/04/17 07:01:30;;;;;;;0.57;0.30;;;;;;;20.09;29.84;102719.78;16149512;19;129322;-63
2022/04/17 07:06:51;;;;;;;1.02;0.55;;;;;;;20.02;30.02;102713.38;16144405;19;129031;-62
2022/04/17 07:12:13;;;;;;;9.80;0.80;;;;;;;20.07;29.75;102710.78;16143608;19;129582;-63
2022/04/17 07:17:39;;;;;;;5.35;0.50;;;;;;;20.12;29.68;102708.25;16148322;19;129775;-63
2022/04/17 07:23:01;;;;;;;4.03;0.70;;;;;;;20.15;29.45;102699.50;16146043;19;129458;-63
2022/04/17 07:28:23;;;;;;;7.28;0.98;;;;;;;20.22;28.94;102696.72;16148022;19;129675;-63
2022/04/17 07:33:45;;;;;;;2.50;0.70;;;;;;;20.35;29.13;102701.41;16148438;19;129409;-63
2022/04/17 07:39:07;;;;;;;1.58;0.60;;;;;;;20.39;29.08;102691.56;16144411;19;130209;-63
2022/04/17 07:44:32;;;;;;;3.20;0.73;;;;;;;20.51;29.25;102695.41;16144851;19;129828;-63
2022/04/17 07:49:54;;;;;;;4.85;0.52;;;;;;;20.75;29.25;102687.44;16141632;19;129519;-63
2022/04/17 07:55:16;;;;;;;4.75;0.80;;;;;;;21.03;28.90;102683.53;16146172;19;129830;-63
2022/04/17 08:00:46;;;;;;;2.33;0.60;;;;;;;21.26;28.85;102680.19;16144189;19;129863;-63
2022/04/17 08:06:10;;;;;;;6.97;0.70;;;;;;;21.46;29.04;102682.03;16138108;19;130522;-63
2022/04/17 08:11:32;;;;;;;2.00;0.70;;;;;;;21.62;29.06;102669.53;16143145;19;129324;-63
2022/04/17 08:16:53;;;;;;;2.08;0.70;;;;;;;21.75;28.65;102666.69;16143355;19;129172;-63
2022/04/17 08:22:15;;;;;;;2.38;0.80;;;;;;;21.85;29.11;102659.75;16143161;19;130923;-63
2022/04/17 08:27:47;;;;;;;2.75;0.93;;;;;;;21.95;28.89;102662.88;16138164;19;130639;-64
2022/04/17 08:33:09;;;;;;;1.58;0.80;;;;;;;22.00;28.35;102651.03;16139068;19;129945;-63
2022/04/17 08:38:31;;;;;;;1.10;0.70;;;;;;;22.01;27.87;102661.09;16143005;19;129290;-64
2022/04/17 08:43:54;;;;;;;2.83;0.80;;;;;;;22.01;26.67;102659.19;16137004;19;129802;-64
2022/04/17 08:49:18;;;;;;;2.55;0.85;;;;;;;22.05;26.87;102659.56;16140154;19;129032;-68
2022/04/17 08:54:40;;;;;;;6.00;1.10;;;;;;;22.09;26.57;102655.25;16132145;19;129818;-67
2022/04/17 09:00:08;;;;;;;3.92;0.80;;;;;;;22.13;27.04;102651.78;16135814;19;131110;-61
2022/04/17 09:05:37;;;;;;;7.93;0.98;;;;;;;22.15;26.60;102647.94;16138367;19;129875;-67
2022/04/17 09:10:58;;;;;;;6.05;0.85;;;;;;;22.07;26.99;102646.28;16133080;19;129642;-59
2022/04/17 09:16:28;;;;;;;3.72;1.40;;;;;;;21.99;26.75;102636.25;16138784;19;129686;-59
2022/04/17 09:21:56;;;;;;;4.85;1.00;;;;;;;21.87;26.86;102635.28;16139780;19;129429;-63
2022/04/17 09:27:25;;;;;;;3.58;0.70;;;;;;;21.73;27.23;102629.81;16133645;19;129110;-62
2022/04/17 09:32:51;;;;;;;3.55;0.90;;;;;;;21.60;27.24;102613.22;16136381;19;128872;-63
2022/04/17 09:38:13;;;;;;;2.85;0.80;;;;;;;21.46;27.59;102618.00;16138475;19;130623;-63
2022/04/17 09:43:36;;;;;;;5.88;1.00;;;;;;;21.35;27.36;102609.25;16135384;19;129866;-63
2022/04/17 09:48:57;;;;;;;2.97;1.02;;;;;;;21.26;27.49;102607.84;16135105;19;129552;-62
2022/04/17 09:54:20;;;;;;;6.43;0.90;;;;;;;21.16;27.68;102597.22;16137260;19;129925;-62
2022/04/17 09:59:42;;;;;;;3.25;0.60;;;;;;;21.09;27.99;102589.97;16135679;19;130000;-62
2022/04/17 10:05:05;;;;;;;1.92;0.70;;;;;;;20.99;28.00;102585.72;16130554;19;129039;-62
2022/04/17 10:10:27;;;;;;;2.25;0.82;;;;;;;20.89;28.23;102569.53;16134967;19;129751;-63
2022/04/17 10:15:51;;;;;;;7.05;0.70;;;;;;;20.84;28.50;102572.09;16130309;19;129421;-63
2022/04/17 10:21:15;;;;;;;2.60;0.93;;;;;;;20.79;28.19;102562.72;16135374;19;130347;-63
2022/04/17 10:26:43;;;;;;;3.42;0.95;;;;;;;20.77;28.69;102559.28;16130442;19;129675;-64
2022/04/17 10:32:15;;;;;;;3.03;0.75;;;;;;;20.75;28.49;102543.69;16132997;19;129404;-64
2022/04/17 10:37:52;;;;;;;6.72;0.90;;;;;;;20.71;28.99;102542.41;16136718;19;129588;-66
2022/04/17 10:43:14;;;;;;;2.40;0.70;;;;;;;20.69;28.82;102525.09;16135259;19;129514;-62
2022/04/17 10:48:56;;;;;;;2.83;0.80;;;;;;;20.69;28.67;102513.97;16130691;19;130280;-63
2022/04/17 10:54:17;;;;;;;1.40;0.60;;;;;;;20.64;28.74;102507.34;16133851;19;130870;-63
2022/04/17 10:59:45;;;;;;;3.25;0.60;;;;;;;20.59;29.01;102497.75;16133383;19;129772;-62
2022/04/17 11:05:10;;;;;;;1.17;0.65;;;;;;;20.54;28.84;102489.22;16131445;19;129422;-62
2022/04/17 11:10:41;;;;;;;1.75;0.80;;;;;;;20.53;28.83;102483.88;16127726;19;130835;-62
2022/04/17 11:16:06;;;;;;;4.03;0.70;;;;;;;20.49;29.06;102471.50;16133478;19;129245;-62
2022/04/17 11:21:41;;;;;;;4.63;0.93;;;;;;;20.47;28.73;102466.16;16128789;19;130073;-62
2022/04/17 11:27:03;;;;;;;1.48;0.90;;;;;;;20.43;28.88;102460.19;16125780;19;129599;-63
2022/04/17 11:32:28;;;;;;;1.70;0.75;;;;;;;20.42;28.66;102452.09;16130935;19;129276;-62
2022/04/17 11:37:54;;;;;;;4.43;1.00;;;;;;;20.40;28.72;102438.38;16131564;19;129540;-63
2022/04/17 11:43:18;;;;;;;3.35;0.80;;;;;;;20.38;28.70;102434.13;16147654;19;129397;-62
2022/04/17 11:48:39;;;;;;;2.30;0.57;;;;;;;20.37;28.82;102418.53;16144957;19;130591;-62
2022/04/17 11:54:01;;;;;;;3.55;0.90;;;;;;;20.36;28.68;102402.91;16144521;19;129228;-62
2022/04/17 11:59:23;;;;;;;2.45;0.80;;;;;;;20.32;28.93;102391.41;16141097;19;129450;-62
2022/04/17 12:04:48;;;;;;;4.78;0.70;;;;;;;20.32;28.85;102382.19;16144102;19;129396;-62
2022/04/17 12:10:13;;;;;;;4.00;1.02;;;;;;;20.32;28.72;102382.19;16146564;19;129524;-62
2022/04/17 12:15:34;;;;;;;9.43;1.43;;;;;;;20.29;28.91;102359.34;16144661;19;129321;-62
2022/04/17 12:20:58;;;;;;;5.22;0.77;;;;;;;20.28;28.97;102363.22;16145678;19;129393;-62
2022/04/17 12:26:21;;;;;;;6.18;0.80;;;;;;;20.27;28.64;102349.53;16142723;19;129555;-62
2022/04/17 12:31:43;;;;;;;1.30;0.60;;;;;;;20.25;28.65;102335.84;16145859;19;129651;-62
2022/04/17 12:37:18;;;;;;;5.63;0.90;;;;;;;20.27;28.56;102339.28;16145308;19;130299;-60
2022/04/17 12:42:40;;;;;;;4.23;0.70;;;;;;;20.25;28.68;102313.63;16144916;19;129202;-63
2022/04/17 12:48:07;;;;;;;2.03;0.70;;;;;;;20.25;29.09;102313.63;16140286;19;129423;-62
2022/04/17 12:53:36;;;;;;;0.85;0.55;;;;;;;20.24;28.89;102306.38;16141420;19;128833;-63
2022/04/17 12:59:02;;;;;;;1.92;0.70;;;;;;;20.23;28.51;102298.25;16144572;19;129563;-62
2022/04/17 13:04:23;;;;;;;5.28;0.70;;;;;;;20.22;28.84;102288.22;16144023;19;129576;-63
2022/04/17 13:09:57;;;;;;;2.20;0.52;;;;;;;20.22;28.65;102280.72;16143872;19;129837;-61
2022/04/17 13:15:29;;;;;;;0.73;0.43;;;;;;;20.21;28.55;102279.00;16138905;19;129546;-62
2022/04/17 13:20:50;;;;;;;1.23;0.52;;;;;;;20.19;28.71;102261.72;16142956;19;129222;-62
2022/04/17 13:26:12;;;;;;;1.30;0.50;;;;;;;20.18;28.53;102250.84;16140859;19;129145;-62
2022/04/17 13:31:37;;;;;;;1.30;0.50;;;;;;;20.18;28.70;102246.16;16143961;19;129612;-62
2022/04/17 13:42:40;;;;;;;0.32;0.30;;;;;;;20.16;28.71;102225.19;16142152;19;129995;-63
2022/04/17 13:48:02;;;;;;;0.90;0.60;;;;;;;20.14;28.44;102211.53;16135959;19;129595;-62
2022/04/17 13:53:24;;;;;;;2.90;0.47;;;;;;;20.14;28.61;102203.19;16141386;19;129222;-62
2022/04/17 13:58:45;;;;;;;0.73;0.45;;;;;;;20.13;28.38;102195.94;16141403;19;128971;-63
2022/04/17 14:04:07;;;;;;;1.15;0.40;;;;;;;20.13;28.71;102182.06;16139631;19;129593;-62
2022/04/17 14:09:32;;;;;;;1.10;0.60;;;;;;;20.11;28.14;102184.19;16139257;19;128827;-62
2022/04/17 14:14:57;;;;;;;1.53;1.00;;;;;;;20.10;28.66;102161.13;16133779;19;130158;-62
2022/04/17 14:20:19;;;;;;;0.73;0.40;;;;;;;20.10;28.08;102165.81;16140653;19;129257;-62
2022/04/17 14:25:41;;;;;;;1.08;0.47;;;;;;;20.10;28.09;102154.72;16135622;19;129089;-63
2022/04/17 14:31:03;;;;;;;0.75;0.43;;;;;;;20.09;28.64;102153.00;16139547;19;128957;-63
2022/04/17 14:36:26;;;;;;;1.85;0.50;;;;;;;20.07;28.47;102144.03;16138109;19;129235;-62
2022/04/17 14:41:48;;;;;;;0.45;0.40;;;;;;;20.07;28.52;102132.94;16139320;19;130115;-62
2022/04/17 14:47:10;;;;;;;1.85;0.50;;;;;;;20.07;28.31;102119.03;16134281;19;129356;-62
2022/04/17 14:52:32;;;;;;;1.58;0.45;;;;;;;20.06;28.60;102114.59;16139495;19;129129;-62
2022/04/17 14:57:53;;;;;;;0.55;0.35;;;;;;;20.06;28.31;102114.59;16137491;19;129193;-63
2022/04/17 15:03:15;;;;;;;1.42;0.65;;;;;;;20.06;28.04;102109.03;16135743;19;129462;-63
2022/04/17 15:08:37;;;;;;;3.00;0.30;;;;;;;20.05;28.26;102101.78;16131186;19;129053;-62
2022/04/17 15:14:01;;;;;;;2.85;0.50;;;;;;;20.04;28.45;102095.34;16133065;19;130093;-62
2022/04/17 15:19:27;;;;;;;0.65;0.40;;;;;;;20.05;28.50;102093.44;16149796;19;129218;-62
2022/04/17 15:24:49;;;;;;;1.38;0.50;;;;;;;20.04;28.46;102087.03;16150032;19;129506;-62
2022/04/17 15:30:10;;;;;;;1.10;0.43;;;;;;;20.04;28.05;102078.69;16147454;19;129890;-62
2022/04/17 15:35:32;;;;;;;1.00;0.50;;;;;;;20.04;28.54;102072.31;16150048;19;129715;-62
2022/04/17 15:40:54;;;;;;;0.65;0.30;;;;;;;20.03;28.15;102054.75;16147764;19;129087;-62
2022/04/17 15:51:57;;;;;;;0.50;0.40;;;;;;;20.03;28.41;102056.72;16149797;19;129052;-63
2022/04/17 15:57:19;;;;;;;0.98;0.40;;;;;;;20.03;28.54;102051.16;16149104;19;130202;-63
2022/04/17 16:02:42;;;;;;;0.90;0.43;;;;;;;20.01;28.09;102044.97;16147098;19;129280;-63
2022/04/17 16:08:04;;;;;;;1.67;0.50;;;;;;;20.01;28.35;102045.81;16143108;19;129841;-62
2022/04/17 16:13:26;;;;;;;1.25;0.40;;;;;;;20.02;28.26;102032.78;16143271;19;129004;-63
2022/04/17 16:18:48;;;;;;;1.05;0.57;;;;;;;20.03;28.72;102031.72;16147539;19;129480;-62
2022/04/17 16:24:10;;;;;;;1.48;0.30;;;;;;;20.03;28.75;102029.75;16146256;19;129557;-62
2022/04/17 16:29:31;;;;;;;2.80;0.32;;;;;;;20.03;28.66;102020.59;16144208;19;129252;-63
2022/04/17 16:34:53;;;;;;;1.13;0.40;;;;;;;20.03;28.19;102012.25;16145337;19;128831;-62
2022/04/17 16:40:15;;;;;;;0.45;0.38;;;;;;;20.03;28.66;102006.72;16146806;19;129447;-62
2022/04/17 16:45:37;;;;;;;1.67;0.38;;;;;;;20.04;28.50;102012.03;16145514;19;129700;-62
2022/04/17 16:50:59;;;;;;;2.05;0.30;;;;;;;20.03;28.25;102004.75;16147957;19;131809;-62
2022/04/17 16:56:21;;;;;;;0.30;0.30;;;;;;;20.04;28.07;102000.06;16146491;19;129175;-62
2022/04/17 17:01:45;;;;;;;0.32;0.30;;;;;;;20.04;28.20;101997.31;16140301;19;130227;-63
2022/04/17 17:07:07;;;;;;;0.55;0.47;;;;;;;20.03;28.33;101998.38;16141542;19;129326;-62
2022/04/17 17:12:28;;;;;;;1.00;0.40;;;;;;;20.02;27.91;101989.19;16141120;19;129402;-63
2022/04/17 17:17:50;;;;;;;1.27;0.30;;;;;;;20.01;28.34;101983.88;16139250;19;129129;-62
2022/04/17 17:23:12;;;;;;;0.68;0.30;;;;;;;19.99;27.88;101984.06;16145256;19;131495;-62
2022/04/17 17:28:35;;;;;;;0.55;0.30;;;;;;;20.00;27.91;101983.00;16138736;19;129508;-63
2022/04/17 17:33:57;;;;;;;0.98;0.50;;;;;;;19.98;28.07;101985.16;16144112;19;129173;-62
2022/04/17 17:39:22;;;;;;;0.93;0.28;;;;;;;19.97;28.17;101977.88;16138649;19;129808;-63
2022/04/17 17:44:44;;;;;;;0.90;0.38;;;;;;;19.95;27.96;101986.44;16143740;19;129329;-63
2022/04/17 17:50:06;;;;;;;0.50;0.30;;;;;;;19.94;27.83;101984.72;16138734;19;129141;-63
2022/04/17 17:55:28;;;;;;;1.75;0.35;;;;;;;19.93;27.86;101984.97;16137671;19;129432;-62
2022/04/17 18:00:50;;;;;;;3.60;0.50;;;;;;;19.90;27.88;101983.50;16139547;19;129621;-63
2022/04/17 18:06:12;;;;;;;1.38;0.40;;;;;;;19.89;27.73;101984.59;16134463;19;129442;-63
2022/04/17 18:17:15;;;;;;;1.50;0.38;;;;;;;19.86;27.34;101995.31;16127776;19;130125;-63
2022/04/17 18:22:45;;;;;;;26.25;1.42;;;;;;;19.83;27.35;101988.28;16131604;19;130755;-63
2022/04/17 18:28:09;;;;;;;11.32;1.13;;;;;;;19.80;27.38;101994.31;16124541;19;131099;-63
2022/04/17 18:33:31;;;;;;;15.32;0.90;;;;;;;19.91;27.76;101987.13;16135361;19;130582;-63
2022/04/17 18:38:53;;;;;;;15.02;0.80;;;;;;;20.11;27.42;101987.81;16134385;19;129512;-64
2022/04/17 18:44:15;;;;;;;6.80;0.90;;;;;;;20.28;27.67;101990.81;16133487;19;129438;-63
2022/04/17 18:49:36;;;;;;;9.15;0.63;;;;;;;20.41;27.70;101983.41;16126727;19;129689;-62
2022/04/17 18:54:58;;;;;;;5.43;0.90;;;;;;;20.52;27.41;101976.19;16132674;19;129302;-64
2022/04/17 19:00:20;;;;;;;10.18;0.70;;;;;;;20.69;27.87;101976.41;16131848;19;129700;-63
2022/04/17 19:05:42;;;;;;;7.55;0.80;;;;;;;20.83;27.82;101980.72;16133843;19;129485;-63
2022/04/17 19:17:08;;;;;;;3.53;0.50;;;;;;;20.88;27.27;101977.22;16116055;19;129282;-62
2022/04/17 19:22:30;;;;;;;4.97;1.27;;;;;;;20.84;27.20;101976.88;16113580;19;132809;-64
2022/04/17 19:27:51;;;;;;;7.68;0.98;;;;;;;20.86;27.29;101982.22;16119765;19;130771;-63
2022/04/17 19:38:53;;;;;;;10.60;0.77;;;;;;;20.79;27.85;101982.31;16119263;19;130286;-64
2022/04/17 19:44:15;;;;;;;13.95;1.63;;;;;;;20.82;28.21;101979.03;16121753;19;133184;-64
2022/04/17 19:49:37;;;;;;;6.95;0.70;;;;;;;20.86;27.81;101977.47;16125487;19;131891;-64
2022/04/17 19:54:59;;;;;;;9.85;0.90;;;;;;;21.00;27.87;101969.78;16128764;19;130159;-64
2022/04/17 20:00:22;;;;;;;7.88;0.57;;;;;;;21.23;28.00;101965.38;16134621;19;129777;-64
2022/04/17 20:05:44;;;;;;;9.48;1.23;;;;;;;21.40;28.11;101965.53;16147095;19;129537;-65
2022/04/17 20:11:06;;;;;;;9.88;0.90;;;;;;;21.48;27.88;101954.03;16142463;19;128953;-64
2022/04/17 20:16:29;;;;;;;9.50;0.85;;;;;;;21.49;28.29;101961.34;16143441;19;129912;-64
2022/04/17 20:21:57;;;;;;;11.82;1.02;;;;;;;21.47;28.09;101951.50;16146138;19;129272;-65
2022/04/17 20:27:19;;;;;;;12.75;0.80;;;;;;;21.41;28.54;101942.19;16143384;19;128971;-63
2022/04/17 20:32:41;;;;;;;10.70;0.90;;;;;;;21.35;28.86;101937.56;16139851;19;129795;-65
2022/04/17 20:38:02;;;;;;;14.52;1.73;;;;;;;21.28;28.42;101937.66;16134860;19;130518;-64
2022/04/17 20:54:45;;;;;;;11.68;0.93;;;;;;;21.07;29.26;101919.59;16144156;19;130583;-66
2022/04/17 21:00:07;;;;;;;7.25;0.90;;;;;;;21.00;29.33;101916.09;16143337;19;129135;-64
2022/04/17 21:05:29;;;;;;;12.27;1.20;;;;;;;20.93;29.34;101912.53;16133592;19;131695;-60
2022/04/17 21:10:51;;;;;;;16.05;1.45;;;;;;;20.85;29.55;101903.47;16139054;19;129748;-64
2022/04/17 21:16:12;;;;;;;13.48;1.00;;;;;;;20.77;29.98;101903.81;16135364;19;129582;-64
2022/04/17 21:21:34;;;;;;;13.23;1.00;;;;;;;20.70;29.96;101903.88;16141472;19;130176;-64
2022/04/17 21:26:56;;;;;;;8.25;0.70;;;;;;;20.63;29.61;101903.13;16137667;19;130302;-64
2022/04/17 21:32:20;;;;;;;12.20;0.90;;;;;;;20.56;29.76;101903.22;16140494;19;129561;-64
2022/04/17 21:37:41;;;;;;;9.07;0.95;;;;;;;20.49;29.77;101896.09;16140089;19;129189;-64
2022/04/17 21:43:03;;;;;;;4.60;1.00;;;;;;;20.44;29.82;101899.53;16138175;19;129132;-64
2022/04/17 21:48:25;;;;;;;6.28;0.90;;;;;;;20.40;29.91;101898.34;16136977;19;129986;-64
2022/04/17 21:53:47;;;;;;;12.60;0.90;;;;;;;20.37;29.56;101904.34;16136798;19;133169;-64
2022/04/17 21:59:09;;;;;;;3.55;0.85;;;;;;;20.36;29.89;101905.44;16139187;19;130151;-64
2022/04/17 22:04:36;;;;;;;3.65;0.60;;;;;;;20.34;29.99;101899.25;16138925;19;129894;-64
2022/04/17 22:09:57;;;;;;;5.13;0.68;;;;;;;20.32;29.58;101906.97;16132302;19;129590;-63
2022/04/17 22:15:19;;;;;;;6.93;0.73;;;;;;;20.27;29.78;101900.22;16134069;19;129445;-64
2022/04/17 22:20:41;;;;;;;4.10;0.57;;;;;;;20.25;29.63;101902.38;16136374;19;130275;-64
2022/04/17 22:26:03;;;;;;;3.67;0.47;;;;;;;20.22;30.14;101897.28;16135234;19;130179;-64
2022/04/17 22:31:24;;;;;;;4.63;0.90;;;;;;;20.19;29.86;101897.72;16131076;19;129216;-64
2022/04/17 22:36:46;;;;;;;3.15;0.68;;;;;;;20.18;30.01;101901.63;16134467;19;129335;-63
2022/04/17 22:42:08;;;;;;;2.20;0.45;;;;;;;20.15;29.79;101896.53;16132518;19;129431;-64
2022/04/17 22:47:31;;;;;;;4.82;0.73;;;;;;;20.13;29.73;101893.94;16131244;19;129364;-63
2022/04/17 22:52:52;;;;;;;6.35;0.82;;;;;;;20.10;29.94;101893.56;16134085;19;130911;-64
2022/04/17 22:58:14;;;;;;;4.22;0.32;;;;;;;20.09;29.99;101891.88;16134042;19;129568;-64
2022/04/17 23:03:37;;;;;;;1.45;0.50;;;;;;;20.07;29.79;101889.34;16132571;19;129448;-64
2022/04/17 23:08:59;;;;;;;3.38;0.50;;;;;;;20.05;29.93;101883.16;16129869;19;130252;-64
2022/04/17 23:14:21;;;;;;;2.80;0.45;;;;;;;20.02;30.00;101880.84;16127957;19;129440;-64
2022/04/17 23:19:42;;;;;;;2.72;0.47;;;;;;;20.02;30.02;101874.47;16132852;19;129840;-64
2022/04/17 23:25:05;;;;;;;0.93;0.30;;;;;;;19.99;30.10;101879.41;16130848;19;129337;-64
2022/04/17 23:30:27;;;;;;;0.70;0.40;;;;;;;19.97;30.09;101872.34;16127300;19;129855;-64
2022/04/17 23:35:51;;;;;;;3.72;0.50;;;;;;;19.94;29.90;101875.59;16135203;19;129261;-64
2022/04/17 23:41:13;;;;;;;0.90;0.40;;;;;;;19.93;30.25;101871.09;16145200;19;128864;-65
2022/04/17 23:46:35;;;;;;;4.57;0.25;;;;;;;19.92;30.09;101870.28;16145820;19;129880;-65
2022/04/17 23:51:57;;;;;;;2.40;0.30;;;;;;;19.90;30.38;101872.44;16142530;19;129606;-64
2022/04/17 23:57:19;;;;;;;1.40;0.20;;;;;;;19.88;29.97;101871.81;16145288;19;129720;-64
